sensor_id;sensor_type;location;lat;lon;timestamp;P1;durP1;ratioP1;P2;durP2;ratioP2
37164;SDS011;23057;48.554;14.454;2023-08-30T00:01:37;3.13;;;2.80;;
37164;SDS011;23057;48.554;14.454;2023-08-30T00:04:07;3.42;;;2.95;;
37164;SDS011;23057;48.554;14.454;2023-08-30T00:06:38;2.80;;;2.22;;
37164;SDS011;23057;48.554;14.454;2023-08-30T00:09:09;3.10;;;2.47;;
37164;SDS011;23057;48.554;14.454;2023-08-30T00:11:40;2.95;;;2.22;;
37164;SDS011;23057;48.554;14.454;2023-08-30T00:14:11;2.90;;;2.30;;
37164;SDS011;23057;48.554;14.454;2023-08-30T00:16:42;3.05;;;1.70;;
37164;SDS011;23057;48.554;14.454;2023-08-30T00:19:12;1.98;;;1.60;;
37164;SDS011;23057;48.554;14.454;2023-08-30T00:21:43;2.75;;;2.13;;
37164;SDS011;23057;48.554;14.454;2023-08-30T00:24:14;2.92;;;1.98;;
37164;SDS011;23057;48.554;14.454;2023-08-30T00:26:45;2.75;;;2.17;;
37164;SDS011;23057;48.554;14.454;2023-08-30T00:29:16;2.28;;;1.90;;
37164;SDS011;23057;48.554;14.454;2023-08-30T00:31:46;2.40;;;1.95;;
37164;SDS011;23057;48.554;14.454;2023-08-30T00:34:17;2.70;;;2.25;;
37164;SDS011;23057;48.554;14.454;2023-08-30T00:36:48;4.00;;;2.38;;
37164;SDS011;23057;48.554;14.454;2023-08-30T00:39:19;2.60;;;2.28;;
37164;SDS011;23057;48.554;14.454;2023-08-30T00:41:50;2.70;;;2.28;;
37164;SDS011;23057;48.554;14.454;2023-08-30T00:44:21;3.13;;;2.22;;
37164;SDS011;23057;48.554;14.454;2023-08-30T00:46:52;3.10;;;2.20;;
37164;SDS011;23057;48.554;14.454;2023-08-30T00:49:23;4.80;;;2.10;;
37164;SDS011;23057;48.554;14.454;2023-08-30T00:51:54;2.83;;;2.28;;
37164;SDS011;23057;48.554;14.454;2023-08-30T00:54:28;2.45;;;1.85;;
37164;SDS011;23057;48.554;14.454;2023-08-30T00:57:00;2.72;;;2.13;;
37164;SDS011;23057;48.554;14.454;2023-08-30T00:59:32;2.47;;;2.05;;
37164;SDS011;23057;48.554;14.454;2023-08-30T01:02:04;2.90;;;2.08;;
37164;SDS011;23057;48.554;14.454;2023-08-30T01:04:35;4.00;;;2.05;;
37164;SDS011;23057;48.554;14.454;2023-08-30T01:07:06;2.28;;;1.98;;
37164;SDS011;23057;48.554;14.454;2023-08-30T01:09:37;2.35;;;1.90;;
37164;SDS011;23057;48.554;14.454;2023-08-30T01:12:10;2.83;;;1.75;;
37164;SDS011;23057;48.554;14.454;2023-08-30T01:15:06;2.20;;;1.90;;
37164;SDS011;23057;48.554;14.454;2023-08-30T01:17:44;2.78;;;2.13;;
37164;SDS011;23057;48.554;14.454;2023-08-30T01:20:20;4.95;;;2.00;;
37164;SDS011;23057;48.554;14.454;2023-08-30T01:23:06;2.33;;;1.90;;
37164;SDS011;23057;48.554;14.454;2023-08-30T01:26:08;2.60;;;2.10;;
37164;SDS011;23057;48.554;14.454;2023-08-30T01:29:08;2.90;;;2.22;;
37164;SDS011;23057;48.554;14.454;2023-08-30T01:31:45;4.00;;;2.37;;
37164;SDS011;23057;48.554;14.454;2023-08-30T01:34:19;2.50;;;1.80;;
37164;SDS011;23057;48.554;14.454;2023-08-30T01:36:51;3.00;;;2.40;;
37164;SDS011;23057;48.554;14.454;2023-08-30T01:39:22;3.75;;;2.40;;
37164;SDS011;23057;48.554;14.454;2023-08-30T01:41:55;2.70;;;2.00;;
37164;SDS011;23057;48.554;14.454;2023-08-30T01:44:29;2.20;;;1.80;;
37164;SDS011;23057;48.554;14.454;2023-08-30T01:47:02;2.63;;;1.80;;
37164;SDS011;23057;48.554;14.454;2023-08-30T01:49:36;3.25;;;2.40;;
37164;SDS011;23057;48.554;14.454;2023-08-30T01:52:10;4.18;;;2.03;;
37164;SDS011;23057;48.554;14.454;2023-08-30T01:54:42;2.22;;;2.03;;
37164;SDS011;23057;48.554;14.454;2023-08-30T01:57:15;2.40;;;1.90;;
37164;SDS011;23057;48.554;14.454;2023-08-30T01:59:46;3.97;;;2.20;;
37164;SDS011;23057;48.554;14.454;2023-08-30T02:02:17;2.40;;;1.98;;
37164;SDS011;23057;48.554;14.454;2023-08-30T02:04:48;2.95;;;2.38;;
37164;SDS011;23057;48.554;14.454;2023-08-30T02:07:28;3.72;;;2.30;;
37164;SDS011;23057;48.554;14.454;2023-08-30T02:10:40;3.40;;;2.03;;
37164;SDS011;23057;48.554;14.454;2023-08-30T02:13:25;3.03;;;2.10;;
37164;SDS011;23057;48.554;14.454;2023-08-30T02:16:00;2.42;;;1.88;;
37164;SDS011;23057;48.554;14.454;2023-08-30T02:18:33;3.20;;;2.15;;
37164;SDS011;23057;48.554;14.454;2023-08-30T02:21:06;4.57;;;2.13;;
37164;SDS011;23057;48.554;14.454;2023-08-30T02:23:39;3.05;;;2.33;;
37164;SDS011;23057;48.554;14.454;2023-08-30T02:26:10;2.40;;;2.08;;
37164;SDS011;23057;48.554;14.454;2023-08-30T02:28:41;2.67;;;2.30;;
37164;SDS011;23057;48.554;14.454;2023-08-30T02:31:11;2.28;;;1.85;;
37164;SDS011;23057;48.554;14.454;2023-08-30T02:33:42;3.67;;;2.33;;
37164;SDS011;23057;48.554;14.454;2023-08-30T02:36:13;2.70;;;1.90;;
37164;SDS011;23057;48.554;14.454;2023-08-30T02:38:44;3.70;;;2.53;;
37164;SDS011;23057;48.554;14.454;2023-08-30T02:41:15;3.05;;;2.28;;
37164;SDS011;23057;48.554;14.454;2023-08-30T02:43:46;2.55;;;2.05;;
37164;SDS011;23057;48.554;14.454;2023-08-30T02:46:16;2.70;;;2.25;;
37164;SDS011;23057;48.554;14.454;2023-08-30T02:48:47;4.07;;;2.50;;
37164;SDS011;23057;48.554;14.454;2023-08-30T02:51:18;3.03;;;2.22;;
37164;SDS011;23057;48.554;14.454;2023-08-30T02:53:49;2.85;;;2.25;;
37164;SDS011;23057;48.554;14.454;2023-08-30T02:56:19;3.20;;;2.47;;
37164;SDS011;23057;48.554;14.454;2023-08-30T02:58:50;2.78;;;2.25;;
37164;SDS011;23057;48.554;14.454;2023-08-30T03:01:21;2.85;;;2.30;;
37164;SDS011;23057;48.554;14.454;2023-08-30T03:03:52;4.97;;;2.13;;
37164;SDS011;23057;48.554;14.454;2023-08-30T03:06:23;3.15;;;2.50;;
37164;SDS011;23057;48.554;14.454;2023-08-30T03:08:54;2.67;;;2.30;;
37164;SDS011;23057;48.554;14.454;2023-08-30T03:11:25;2.80;;;2.10;;
37164;SDS011;23057;48.554;14.454;2023-08-30T03:13:56;2.78;;;2.30;;
37164;SDS011;23057;48.554;14.454;2023-08-30T03:16:26;3.97;;;2.17;;
37164;SDS011;23057;48.554;14.454;2023-08-30T03:18:59;2.65;;;2.17;;
37164;SDS011;23057;48.554;14.454;2023-08-30T03:21:30;3.03;;;2.15;;
37164;SDS011;23057;48.554;14.454;2023-08-30T03:24:01;2.60;;;2.22;;
37164;SDS011;23057;48.554;14.454;2023-08-30T03:26:32;3.05;;;2.47;;
37164;SDS011;23057;48.554;14.454;2023-08-30T03:29:03;3.60;;;2.38;;
37164;SDS011;23057;48.554;14.454;2023-08-30T03:31:34;3.75;;;2.42;;
37164;SDS011;23057;48.554;14.454;2023-08-30T03:34:05;2.85;;;2.47;;
37164;SDS011;23057;48.554;14.454;2023-08-30T03:36:36;3.42;;;2.10;;
37164;SDS011;23057;48.554;14.454;2023-08-30T03:39:08;2.65;;;2.08;;
37164;SDS011;23057;48.554;14.454;2023-08-30T03:41:39;4.45;;;2.13;;
37164;SDS011;23057;48.554;14.454;2023-08-30T03:44:09;2.63;;;2.08;;
37164;SDS011;23057;48.554;14.454;2023-08-30T03:46:41;2.95;;;2.22;;
37164;SDS011;23057;48.554;14.454;2023-08-30T03:49:12;2.05;;;1.80;;
37164;SDS011;23057;48.554;14.454;2023-08-30T03:51:43;2.55;;;1.98;;
37164;SDS011;23057;48.554;14.454;2023-08-30T03:54:13;3.72;;;2.13;;
37164;SDS011;23057;48.554;14.454;2023-08-30T03:56:46;2.95;;;2.15;;
37164;SDS011;23057;48.554;14.454;2023-08-30T03:59:17;3.05;;;2.10;;
37164;SDS011;23057;48.554;14.454;2023-08-30T04:01:48;2.60;;;2.00;;
37164;SDS011;23057;48.554;14.454;2023-08-30T04:04:19;3.03;;;1.90;;
37164;SDS011;23057;48.554;14.454;2023-08-30T04:06:50;2.40;;;1.95;;
37164;SDS011;23057;48.554;14.454;2023-08-30T04:09:21;2.20;;;2.00;;
37164;SDS011;23057;48.554;14.454;2023-08-30T04:11:51;2.95;;;1.90;;
37164;SDS011;23057;48.554;14.454;2023-08-30T04:14:22;2.28;;;1.67;;
37164;SDS011;23057;48.554;14.454;2023-08-30T04:16:53;2.50;;;1.98;;
37164;SDS011;23057;48.554;14.454;2023-08-30T04:19:24;2.05;;;1.70;;
37164;SDS011;23057;48.554;14.454;2023-08-30T04:21:55;2.20;;;1.92;;
37164;SDS011;23057;48.554;14.454;2023-08-30T04:24:26;2.70;;;1.83;;
37164;SDS011;23057;48.554;14.454;2023-08-30T04:26:57;2.88;;;1.80;;
37164;SDS011;23057;48.554;14.454;2023-08-30T04:29:28;1.95;;;1.65;;
37164;SDS011;23057;48.554;14.454;2023-08-30T04:31:58;2.65;;;1.80;;
37164;SDS011;23057;48.554;14.454;2023-08-30T04:34:30;1.92;;;1.40;;
37164;SDS011;23057;48.554;14.454;2023-08-30T04:37:02;2.20;;;1.77;;
37164;SDS011;23057;48.554;14.454;2023-08-30T04:39:33;2.10;;;1.60;;
37164;SDS011;23057;48.554;14.454;2023-08-30T04:42:04;2.42;;;1.80;;
37164;SDS011;23057;48.554;14.454;2023-08-30T04:44:35;1.92;;;1.58;;
37164;SDS011;23057;48.554;14.454;2023-08-30T04:47:06;2.25;;;1.83;;
37164;SDS011;23057;48.554;14.454;2023-08-30T04:49:36;2.33;;;1.60;;
37164;SDS011;23057;48.554;14.454;2023-08-30T04:52:07;2.10;;;1.73;;
37164;SDS011;23057;48.554;14.454;2023-08-30T04:54:38;1.95;;;1.40;;
37164;SDS011;23057;48.554;14.454;2023-08-30T04:57:09;2.40;;;1.63;;
37164;SDS011;23057;48.554;14.454;2023-08-30T04:59:44;2.60;;;1.35;;
37164;SDS011;23057;48.554;14.454;2023-08-30T05:02:16;2.38;;;1.55;;
37164;SDS011;23057;48.554;14.454;2023-08-30T05:04:47;2.35;;;1.65;;
37164;SDS011;23057;48.554;14.454;2023-08-30T05:07:18;1.90;;;1.40;;
37164;SDS011;23057;48.554;14.454;2023-08-30T05:09:48;2.80;;;1.58;;
37164;SDS011;23057;48.554;14.454;2023-08-30T05:12:19;1.77;;;1.35;;
37164;SDS011;23057;48.554;14.454;2023-08-30T05:14:50;3.00;;;1.52;;
37164;SDS011;23057;48.554;14.454;2023-08-30T05:17:21;2.35;;;1.83;;
37164;SDS011;23057;48.554;14.454;2023-08-30T05:19:52;2.67;;;1.63;;
37164;SDS011;23057;48.554;14.454;2023-08-30T05:22:22;3.00;;;1.42;;
37164;SDS011;23057;48.554;14.454;2023-08-30T05:24:53;1.75;;;1.50;;
37164;SDS011;23057;48.554;14.454;2023-08-30T05:27:24;2.55;;;1.60;;
37164;SDS011;23057;48.554;14.454;2023-08-30T05:29:55;2.08;;;1.33;;
37164;SDS011;23057;48.554;14.454;2023-08-30T05:32:26;1.42;;;1.25;;
37164;SDS011;23057;48.554;14.454;2023-08-30T05:34:57;1.77;;;1.40;;
37164;SDS011;23057;48.554;14.454;2023-08-30T05:37:29;1.70;;;1.30;;
37164;SDS011;23057;48.554;14.454;2023-08-30T05:39:59;0.95;;;0.85;;
37164;SDS011;23057;48.554;14.454;2023-08-30T05:42:30;3.72;;;1.30;;
37164;SDS011;23057;48.554;14.454;2023-08-30T05:45:01;1.42;;;1.15;;
37164;SDS011;23057;48.554;14.454;2023-08-30T05:47:33;1.20;;;1.05;;
37164;SDS011;23057;48.554;14.454;2023-08-30T05:50:03;1.90;;;1.27;;
37164;SDS011;23057;48.554;14.454;2023-08-30T05:52:35;1.52;;;1.20;;
37164;SDS011;23057;48.554;14.454;2023-08-30T05:55:11;1.73;;;1.15;;
37164;SDS011;23057;48.554;14.454;2023-08-30T05:57:41;1.63;;;1.02;;
37164;SDS011;23057;48.554;14.454;2023-08-30T06:00:12;1.65;;;1.25;;
37164;SDS011;23057;48.554;14.454;2023-08-30T06:02:44;2.05;;;1.40;;
37164;SDS011;23057;48.554;14.454;2023-08-30T06:05:15;1.80;;;1.40;;
37164;SDS011;23057;48.554;14.454;2023-08-30T06:07:46;1.58;;;1.13;;
37164;SDS011;23057;48.554;14.454;2023-08-30T06:10:17;3.00;;;1.10;;
37164;SDS011;23057;48.554;14.454;2023-08-30T06:12:48;2.83;;;1.08;;
37164;SDS011;23057;48.554;14.454;2023-08-30T06:15:19;1.13;;;0.93;;
37164;SDS011;23057;48.554;14.454;2023-08-30T06:17:50;1.80;;;1.10;;
37164;SDS011;23057;48.554;14.454;2023-08-30T06:20:21;2.58;;;1.30;;
37164;SDS011;23057;48.554;14.454;2023-08-30T06:22:52;1.30;;;1.00;;
37164;SDS011;23057;48.554;14.454;2023-08-30T06:25:22;1.30;;;1.00;;
37164;SDS011;23057;48.554;14.454;2023-08-30T06:27:57;1.40;;;0.85;;
37164;SDS011;23057;48.554;14.454;2023-08-30T06:30:31;1.17;;;0.93;;
37164;SDS011;23057;48.554;14.454;2023-08-30T06:33:02;1.10;;;0.90;;
37164;SDS011;23057;48.554;14.454;2023-08-30T06:35:35;1.80;;;0.82;;
37164;SDS011;23057;48.554;14.454;2023-08-30T06:38:09;1.50;;;0.90;;
37164;SDS011;23057;48.554;14.454;2023-08-30T06:40:43;1.33;;;1.00;;
37164;SDS011;23057;48.554;14.454;2023-08-30T06:43:16;1.13;;;0.85;;
37164;SDS011;23057;48.554;14.454;2023-08-30T06:45:48;1.38;;;0.90;;
37164;SDS011;23057;48.554;14.454;2023-08-30T06:48:19;1.30;;;0.98;;
37164;SDS011;23057;48.554;14.454;2023-08-30T06:50:50;1.35;;;0.90;;
37164;SDS011;23057;48.554;14.454;2023-08-30T06:53:20;1.33;;;0.95;;
37164;SDS011;23057;48.554;14.454;2023-08-30T06:55:58;1.38;;;0.93;;
37164;SDS011;23057;48.554;14.454;2023-08-30T06:58:30;1.77;;;0.90;;
37164;SDS011;23057;48.554;14.454;2023-08-30T07:01:01;0.90;;;0.80;;
37164;SDS011;23057;48.554;14.454;2023-08-30T07:03:33;1.40;;;1.00;;
37164;SDS011;23057;48.554;14.454;2023-08-30T07:06:04;1.13;;;0.90;;
37164;SDS011;23057;48.554;14.454;2023-08-30T07:08:34;1.60;;;1.05;;
37164;SDS011;23057;48.554;14.454;2023-08-30T07:11:05;0.88;;;0.70;;
37164;SDS011;23057;48.554;14.454;2023-08-30T07:13:36;2.58;;;0.80;;
37164;SDS011;23057;48.554;14.454;2023-08-30T07:16:07;2.22;;;0.80;;
37164;SDS011;23057;48.554;14.454;2023-08-30T07:18:38;0.60;;;0.60;;
37164;SDS011;23057;48.554;14.454;2023-08-30T07:21:09;0.82;;;0.80;;
37164;SDS011;23057;48.554;14.454;2023-08-30T07:23:40;1.05;;;0.90;;
37164;SDS011;23057;48.554;14.454;2023-08-30T07:26:11;1.63;;;0.80;;
37164;SDS011;23057;48.554;14.454;2023-08-30T07:28:41;2.42;;;0.82;;
37164;SDS011;23057;48.554;14.454;2023-08-30T07:31:12;1.52;;;0.93;;
37164;SDS011;23057;48.554;14.454;2023-08-30T07:33:45;0.90;;;0.68;;
37164;SDS011;23057;48.554;14.454;2023-08-30T07:36:16;1.00;;;0.80;;
37164;SDS011;23057;48.554;14.454;2023-08-30T07:38:47;2.15;;;1.30;;
37164;SDS011;23057;48.554;14.454;2023-08-30T07:41:17;1.52;;;0.77;;
37164;SDS011;23057;48.554;14.454;2023-08-30T07:43:48;0.90;;;0.80;;
37164;SDS011;23057;48.554;14.454;2023-08-30T07:46:19;1.63;;;0.90;;
37164;SDS011;23057;48.554;14.454;2023-08-30T07:48:50;1.10;;;0.80;;
37164;SDS011;23057;48.554;14.454;2023-08-30T07:51:21;0.90;;;0.77;;
37164;SDS011;23057;48.554;14.454;2023-08-30T07:53:52;1.45;;;0.90;;
37164;SDS011;23057;48.554;14.454;2023-08-30T07:56:23;1.38;;;0.93;;
37164;SDS011;23057;48.554;14.454;2023-08-30T07:58:53;1.35;;;1.00;;
37164;SDS011;23057;48.554;14.454;2023-08-30T08:01:25;1.15;;;0.85;;
37164;SDS011;23057;48.554;14.454;2023-08-30T08:04:00;1.75;;;0.90;;
37164;SDS011;23057;48.554;14.454;2023-08-30T08:06:34;1.00;;;0.88;;
37164;SDS011;23057;48.554;14.454;2023-08-30T08:09:05;0.88;;;0.68;;
37164;SDS011;23057;48.554;14.454;2023-08-30T08:11:37;1.20;;;0.85;;
37164;SDS011;23057;48.554;14.454;2023-08-30T08:14:13;1.63;;;0.90;;
37164;SDS011;23057;48.554;14.454;2023-08-30T08:16:44;0.98;;;0.73;;
37164;SDS011;23057;48.554;14.454;2023-08-30T08:19:15;0.98;;;0.80;;
37164;SDS011;23057;48.554;14.454;2023-08-30T08:21:46;1.23;;;0.75;;
37164;SDS011;23057;48.554;14.454;2023-08-30T08:24:16;2.67;;;1.00;;
37164;SDS011;23057;48.554;14.454;2023-08-30T08:26:47;1.52;;;1.05;;
37164;SDS011;23057;48.554;14.454;2023-08-30T08:29:18;3.30;;;1.00;;
37164;SDS011;23057;48.554;14.454;2023-08-30T08:31:49;6.25;;;1.15;;
37164;SDS011;23057;48.554;14.454;2023-08-30T08:34:20;0.98;;;0.80;;
37164;SDS011;23057;48.554;14.454;2023-08-30T08:36:51;1.77;;;0.95;;
37164;SDS011;23057;48.554;14.454;2023-08-30T08:39:22;2.22;;;0.90;;
37164;SDS011;23057;48.554;14.454;2023-08-30T08:41:53;2.53;;;1.10;;
37164;SDS011;23057;48.554;14.454;2023-08-30T08:44:24;1.70;;;1.10;;
37164;SDS011;23057;48.554;14.454;2023-08-30T08:47:02;2.30;;;0.98;;
37164;SDS011;23057;48.554;14.454;2023-08-30T08:49:34;0.80;;;0.77;;
37164;SDS011;23057;48.554;14.454;2023-08-30T08:52:05;1.33;;;0.90;;
37164;SDS011;23057;48.554;14.454;2023-08-30T08:54:38;1.30;;;0.80;;
37164;SDS011;23057;48.554;14.454;2023-08-30T08:57:10;2.05;;;1.30;;
37164;SDS011;23057;48.554;14.454;2023-08-30T08:59:41;2.35;;;1.30;;
37164;SDS011;23057;48.554;14.454;2023-08-30T09:02:13;1.85;;;1.30;;
37164;SDS011;23057;48.554;14.454;2023-08-30T09:04:45;1.55;;;1.10;;
37164;SDS011;23057;48.554;14.454;2023-08-30T09:07:16;1.73;;;1.20;;
37164;SDS011;23057;48.554;14.454;2023-08-30T09:09:47;3.13;;;1.40;;
37164;SDS011;23057;48.554;14.454;2023-08-30T09:12:19;1.73;;;1.02;;
37164;SDS011;23057;48.554;14.454;2023-08-30T09:14:54;1.48;;;1.05;;
37164;SDS011;23057;48.554;14.454;2023-08-30T09:17:39;1.38;;;1.10;;
37164;SDS011;23057;48.554;14.454;2023-08-30T09:20:10;3.83;;;1.70;;
37164;SDS011;23057;48.554;14.454;2023-08-30T09:22:43;2.00;;;1.27;;
37164;SDS011;23057;48.554;14.454;2023-08-30T09:25:22;6.60;;;1.42;;
37164;SDS011;23057;48.554;14.454;2023-08-30T09:27:58;1.75;;;1.05;;
37164;SDS011;23057;48.554;14.454;2023-08-30T09:30:33;1.67;;;1.13;;
37164;SDS011;23057;48.554;14.454;2023-08-30T09:33:04;1.88;;;1.23;;
37164;SDS011;23057;48.554;14.454;2023-08-30T09:35:44;3.45;;;1.38;;
37164;SDS011;23057;48.554;14.454;2023-08-30T09:38:16;1.60;;;1.10;;
37164;SDS011;23057;48.554;14.454;2023-08-30T09:40:50;3.53;;;1.17;;
37164;SDS011;23057;48.554;14.454;2023-08-30T09:43:32;2.20;;;1.20;;
37164;SDS011;23057;48.554;14.454;2023-08-30T09:46:04;1.60;;;1.20;;
37164;SDS011;23057;48.554;14.454;2023-08-30T09:48:37;1.70;;;1.23;;
37164;SDS011;23057;48.554;14.454;2023-08-30T09:51:10;1.23;;;1.02;;
37164;SDS011;23057;48.554;14.454;2023-08-30T09:53:44;2.30;;;1.20;;
37164;SDS011;23057;48.554;14.454;2023-08-30T09:56:24;1.30;;;1.00;;
37164;SDS011;23057;48.554;14.454;2023-08-30T09:58:58;3.08;;;1.13;;
37164;SDS011;23057;48.554;14.454;2023-08-30T10:01:32;2.67;;;1.20;;
37164;SDS011;23057;48.554;14.454;2023-08-30T10:04:05;1.88;;;1.20;;
37164;SDS011;23057;48.554;14.454;2023-08-30T10:06:41;3.05;;;1.40;;
37164;SDS011;23057;48.554;14.454;2023-08-30T10:09:14;1.88;;;1.15;;
37164;SDS011;23057;48.554;14.454;2023-08-30T10:11:47;1.35;;;1.02;;
37164;SDS011;23057;48.554;14.454;2023-08-30T10:14:18;2.58;;;1.63;;
37164;SDS011;23057;48.554;14.454;2023-08-30T10:16:49;1.63;;;1.30;;
37164;SDS011;23057;48.554;14.454;2023-08-30T10:19:32;2.28;;;1.50;;
37164;SDS011;23057;48.554;14.454;2023-08-30T10:22:06;1.58;;;1.20;;
37164;SDS011;23057;48.554;14.454;2023-08-30T10:27:24;2.00;;;1.52;;
37164;SDS011;23057;48.554;14.454;2023-08-30T10:29:57;3.13;;;1.45;;
37164;SDS011;23057;48.554;14.454;2023-08-30T10:32:38;1.75;;;1.27;;
37164;SDS011;23057;48.554;14.454;2023-08-30T10:35:15;1.98;;;1.50;;
37164;SDS011;23057;48.554;14.454;2023-08-30T10:37:59;2.42;;;1.50;;
37164;SDS011;23057;48.554;14.454;2023-08-30T10:40:30;1.75;;;1.25;;
37164;SDS011;23057;48.554;14.454;2023-08-30T10:43:01;1.80;;;1.20;;
37164;SDS011;23057;48.554;14.454;2023-08-30T10:45:34;2.22;;;1.30;;
37164;SDS011;23057;48.554;14.454;2023-08-30T10:48:05;2.35;;;1.20;;
37164;SDS011;23057;48.554;14.454;2023-08-30T10:50:36;1.73;;;1.33;;
37164;SDS011;23057;48.554;14.454;2023-08-30T10:53:12;1.70;;;1.13;;
37164;SDS011;23057;48.554;14.454;2023-08-30T10:56:02;4.03;;;1.45;;
37164;SDS011;23057;48.554;14.454;2023-08-30T10:58:42;1.42;;;0.80;;
37164;SDS011;23057;48.554;14.454;2023-08-30T11:01:14;3.80;;;1.35;;
37164;SDS011;23057;48.554;14.454;2023-08-30T11:03:46;1.15;;;0.90;;
37164;SDS011;23057;48.554;14.454;2023-08-30T11:06:19;1.17;;;0.73;;
37164;SDS011;23057;48.554;14.454;2023-08-30T11:08:51;2.63;;;1.00;;
37164;SDS011;23057;48.554;14.454;2023-08-30T11:11:23;3.58;;;1.90;;
37164;SDS011;23057;48.554;14.454;2023-08-30T11:14:03;2.63;;;1.42;;
37164;SDS011;23057;48.554;14.454;2023-08-30T11:16:37;2.13;;;0.93;;
37164;SDS011;23057;48.554;14.454;2023-08-30T11:19:09;2.90;;;0.98;;
37164;SDS011;23057;48.554;14.454;2023-08-30T11:21:44;1.60;;;1.10;;
37164;SDS011;23057;48.554;14.454;2023-08-30T11:24:16;1.52;;;1.00;;
37164;SDS011;23057;48.554;14.454;2023-08-30T11:26:52;2.35;;;1.10;;
37164;SDS011;23057;48.554;14.454;2023-08-30T11:29:26;1.40;;;1.00;;
37164;SDS011;23057;48.554;14.454;2023-08-30T11:31:57;3.30;;;1.20;;
37164;SDS011;23057;48.554;14.454;2023-08-30T11:34:28;3.33;;;1.02;;
37164;SDS011;23057;48.554;14.454;2023-08-30T11:36:59;3.95;;;1.00;;
37164;SDS011;23057;48.554;14.454;2023-08-30T11:39:30;3.33;;;1.00;;
37164;SDS011;23057;48.554;14.454;2023-08-30T11:42:02;2.17;;;1.05;;
37164;SDS011;23057;48.554;14.454;2023-08-30T11:44:35;1.92;;;1.00;;
37164;SDS011;23057;48.554;14.454;2023-08-30T11:47:06;4.22;;;1.17;;
37164;SDS011;23057;48.554;14.454;2023-08-30T11:49:37;1.40;;;0.90;;
37164;SDS011;23057;48.554;14.454;2023-08-30T11:52:09;2.35;;;1.23;;
37164;SDS011;23057;48.554;14.454;2023-08-30T11:54:41;3.35;;;1.10;;
37164;SDS011;23057;48.554;14.454;2023-08-30T11:57:13;0.73;;;0.52;;
37164;SDS011;23057;48.554;14.454;2023-08-30T11:59:44;1.50;;;0.90;;
37164;SDS011;23057;48.554;14.454;2023-08-30T12:02:15;1.67;;;0.90;;
37164;SDS011;23057;48.554;14.454;2023-08-30T12:04:49;1.20;;;0.80;;
37164;SDS011;23057;48.554;14.454;2023-08-30T12:07:21;2.30;;;1.10;;
37164;SDS011;23057;48.554;14.454;2023-08-30T12:12:43;1.08;;;0.80;;
37164;SDS011;23057;48.554;14.454;2023-08-30T12:15:15;2.40;;;0.77;;
37164;SDS011;23057;48.554;14.454;2023-08-30T12:17:46;4.13;;;0.88;;
37164;SDS011;23057;48.554;14.454;2023-08-30T12:20:18;1.88;;;0.93;;
37164;SDS011;23057;48.554;14.454;2023-08-30T12:22:53;0.85;;;0.57;;
37164;SDS011;23057;48.554;14.454;2023-08-30T12:25:24;3.33;;;1.13;;
37164;SDS011;23057;48.554;14.454;2023-08-30T12:27:56;1.98;;;0.80;;
37164;SDS011;23057;48.554;14.454;2023-08-30T12:30:26;4.22;;;1.00;;
37164;SDS011;23057;48.554;14.454;2023-08-30T12:33:00;4.45;;;1.17;;
37164;SDS011;23057;48.554;14.454;2023-08-30T12:35:34;1.30;;;0.80;;
37164;SDS011;23057;48.554;14.454;2023-08-30T12:38:05;1.27;;;0.90;;
37164;SDS011;23057;48.554;14.454;2023-08-30T12:40:36;1.27;;;0.80;;
37164;SDS011;23057;48.554;14.454;2023-08-30T12:43:07;1.17;;;0.73;;
37164;SDS011;23057;48.554;14.454;2023-08-30T12:45:38;1.33;;;0.75;;
37164;SDS011;23057;48.554;14.454;2023-08-30T12:48:11;1.08;;;0.60;;
37164;SDS011;23057;48.554;14.454;2023-08-30T12:50:47;1.55;;;0.93;;
37164;SDS011;23057;48.554;14.454;2023-08-30T12:53:18;3.40;;;1.05;;
37164;SDS011;23057;48.554;14.454;2023-08-30T12:55:49;4.20;;;1.13;;
37164;SDS011;23057;48.554;14.454;2023-08-30T12:58:20;1.58;;;0.82;;
37164;SDS011;23057;48.554;14.454;2023-08-30T13:00:51;1.40;;;0.95;;
37164;SDS011;23057;48.554;14.454;2023-08-30T13:03:22;1.23;;;0.80;;
37164;SDS011;23057;48.554;14.454;2023-08-30T13:05:53;1.40;;;1.00;;
37164;SDS011;23057;48.554;14.454;2023-08-30T13:08:24;1.33;;;0.82;;
37164;SDS011;23057;48.554;14.454;2023-08-30T13:10:55;2.38;;;1.10;;
37164;SDS011;23057;48.554;14.454;2023-08-30T13:13:25;2.00;;;0.90;;
37164;SDS011;23057;48.554;14.454;2023-08-30T13:15:56;2.97;;;1.20;;
37164;SDS011;23057;48.554;14.454;2023-08-30T13:18:27;1.20;;;0.80;;
37164;SDS011;23057;48.554;14.454;2023-08-30T13:20:58;0.90;;;0.77;;
37164;SDS011;23057;48.554;14.454;2023-08-30T13:23:36;2.47;;;1.85;;
37164;SDS011;23057;48.554;14.454;2023-08-30T13:26:07;2.53;;;0.95;;
37164;SDS011;23057;48.554;14.454;2023-08-30T13:28:38;2.13;;;1.30;;
37164;SDS011;23057;48.554;14.454;2023-08-30T13:31:09;2.63;;;1.10;;
37164;SDS011;23057;48.554;14.454;2023-08-30T13:33:42;3.40;;;1.25;;
37164;SDS011;23057;48.554;14.454;2023-08-30T13:36:13;1.67;;;0.93;;
37164;SDS011;23057;48.554;14.454;2023-08-30T13:38:43;2.58;;;1.33;;
37164;SDS011;23057;48.554;14.454;2023-08-30T13:41:14;1.63;;;0.90;;
37164;SDS011;23057;48.554;14.454;2023-08-30T13:43:45;1.63;;;1.10;;
37164;SDS011;23057;48.554;14.454;2023-08-30T13:46:16;1.83;;;1.00;;
37164;SDS011;23057;48.554;14.454;2023-08-30T13:48:46;1.35;;;0.90;;
37164;SDS011;23057;48.554;14.454;2023-08-30T13:51:24;1.63;;;1.20;;
37164;SDS011;23057;48.554;14.454;2023-08-30T13:53:56;3.80;;;1.10;;
37164;SDS011;23057;48.554;14.454;2023-08-30T13:56:27;4.25;;;1.30;;
37164;SDS011;23057;48.554;14.454;2023-08-30T13:58:58;1.88;;;1.38;;
37164;SDS011;23057;48.554;14.454;2023-08-30T14:01:29;1.88;;;1.40;;
37164;SDS011;23057;48.554;14.454;2023-08-30T14:04:00;2.08;;;1.25;;
37164;SDS011;23057;48.554;14.454;2023-08-30T14:06:34;1.92;;;1.38;;
37164;SDS011;23057;48.554;14.454;2023-08-30T14:09:05;4.60;;;1.63;;
37164;SDS011;23057;48.554;14.454;2023-08-30T14:11:38;1.83;;;1.20;;
37164;SDS011;23057;48.554;14.454;2023-08-30T14:14:09;2.78;;;1.40;;
37164;SDS011;23057;48.554;14.454;2023-08-30T14:16:40;2.78;;;1.60;;
37164;SDS011;23057;48.554;14.454;2023-08-30T14:19:11;3.22;;;1.42;;
37164;SDS011;23057;48.554;14.454;2023-08-30T14:21:42;2.38;;;1.40;;
37164;SDS011;23057;48.554;14.454;2023-08-30T14:24:13;2.72;;;1.33;;
37164;SDS011;23057;48.554;14.454;2023-08-30T14:26:44;2.25;;;1.40;;
37164;SDS011;23057;48.554;14.454;2023-08-30T14:29:15;4.43;;;1.42;;
37164;SDS011;23057;48.554;14.454;2023-08-30T14:31:51;2.03;;;1.30;;
37164;SDS011;23057;48.554;14.454;2023-08-30T14:34:22;2.38;;;1.58;;
37164;SDS011;23057;48.554;14.454;2023-08-30T14:36:53;2.65;;;1.50;;
37164;SDS011;23057;48.554;14.454;2023-08-30T14:39:23;2.50;;;1.60;;
37164;SDS011;23057;48.554;14.454;2023-08-30T14:41:54;2.67;;;1.55;;
37164;SDS011;23057;48.554;14.454;2023-08-30T14:44:25;2.78;;;1.63;;
37164;SDS011;23057;48.554;14.454;2023-08-30T14:46:56;3.40;;;1.63;;
37164;SDS011;23057;48.554;14.454;2023-08-30T14:49:27;2.10;;;1.33;;
37164;SDS011;23057;48.554;14.454;2023-08-30T14:52:00;1.40;;;1.10;;
37164;SDS011;23057;48.554;14.454;2023-08-30T14:54:31;1.70;;;1.23;;
37164;SDS011;23057;48.554;14.454;2023-08-30T14:57:02;2.55;;;1.45;;
37164;SDS011;23057;48.554;14.454;2023-08-30T14:59:33;2.33;;;1.40;;
37164;SDS011;23057;48.554;14.454;2023-08-30T15:02:05;3.17;;;1.25;;
37164;SDS011;23057;48.554;14.454;2023-08-30T15:04:36;3.42;;;1.45;;
37164;SDS011;23057;48.554;14.454;2023-08-30T15:07:07;1.48;;;1.08;;
37164;SDS011;23057;48.554;14.454;2023-08-30T15:09:38;5.97;;;2.00;;